sensor_id;sensor_type;location;lat;lon;timestamp;temperature;humidity
67974;DHT22;54756;51.140;6.952;2023-06-10T00:00:38;24.20;40.00
67974;DHT22;54756;51.140;6.952;2023-06-10T00:02:42;24.20;40.00
67974;DHT22;54756;51.140;6.952;2023-06-10T00:04:44;24.20;39.90
67974;DHT22;54756;51.140;6.952;2023-06-10T00:06:44;24.20;39.80
67974;DHT22;54756;51.140;6.952;2023-06-10T00:08:45;24.10;39.60
67974;DHT22;54756;51.140;6.952;2023-06-10T00:10:47;24.10;39.60
67974;DHT22;54756;51.140;6.952;2023-06-10T00:12:48;24.20;39.60
67974;DHT22;54756;51.140;6.952;2023-06-10T00:14:48;24.10;39.50
67974;DHT22;54756;51.140;6.952;2023-06-10T00:16:51;24.10;39.40
67974;DHT22;54756;51.140;6.952;2023-06-10T00:18:52;24.10;39.40
67974;DHT22;54756;51.140;6.952;2023-06-10T00:20:53;24.10;39.20
67974;DHT22;54756;51.140;6.952;2023-06-10T00:22:55;24.10;39.20
67974;DHT22;54756;51.140;6.952;2023-06-10T00:24:57;24.10;39.10
67974;DHT22;54756;51.140;6.952;2023-06-10T00:26:57;24.10;39.10
67974;DHT22;54756;51.140;6.952;2023-06-10T00:28:58;24.10;39.10
67974;DHT22;54756;51.140;6.952;2023-06-10T00:30:59;24.10;39.00
67974;DHT22;54756;51.140;6.952;2023-06-10T00:33:00;24.10;38.90
67974;DHT22;54756;51.140;6.952;2023-06-10T00:35:01;24.10;38.80
67974;DHT22;54756;51.140;6.952;2023-06-10T00:37:02;24.10;38.80
67974;DHT22;54756;51.140;6.952;2023-06-10T00:39:02;24.10;38.70
67974;DHT22;54756;51.140;6.952;2023-06-10T00:41:04;24.10;38.70
67974;DHT22;54756;51.140;6.952;2023-06-10T00:43:05;24.00;38.50
67974;DHT22;54756;51.140;6.952;2023-06-10T00:45:06;24.00;38.50
67974;DHT22;54756;51.140;6.952;2023-06-10T00:47:07;24.00;38.40
67974;DHT22;54756;51.140;6.952;2023-06-10T00:49:08;24.00;38.40
67974;DHT22;54756;51.140;6.952;2023-06-10T00:51:09;24.00;38.40
67974;DHT22;54756;51.140;6.952;2023-06-10T00:53:10;24.00;38.40
67974;DHT22;54756;51.140;6.952;2023-06-10T00:55:11;24.00;38.40
67974;DHT22;54756;51.140;6.952;2023-06-10T00:57:12;24.00;38.20
67974;DHT22;54756;51.140;6.952;2023-06-10T00:59:14;24.00;38.20
67974;DHT22;54756;51.140;6.952;2023-06-10T01:01:15;24.00;38.20
67974;DHT22;54756;51.140;6.952;2023-06-10T01:03:15;24.00;38.10
67974;DHT22;54756;51.140;6.952;2023-06-10T01:05:17;24.00;38.00
67974;DHT22;54756;51.140;6.952;2023-06-10T01:07:25;24.00;38.10
67974;DHT22;54756;51.140;6.952;2023-06-10T01:12:05;24.00;38.10
67974;DHT22;54756;51.140;6.952;2023-06-10T01:14:10;24.00;38.00
67974;DHT22;54756;51.140;6.952;2023-06-10T01:16:12;23.90;37.90
67974;DHT22;54756;51.140;6.952;2023-06-10T01:18:13;23.90;37.80
67974;DHT22;54756;51.140;6.952;2023-06-10T01:20:15;23.90;37.80
67974;DHT22;54756;51.140;6.952;2023-06-10T01:22:15;23.90;37.80
67974;DHT22;54756;51.140;6.952;2023-06-10T01:24:16;23.90;37.80
67974;DHT22;54756;51.140;6.952;2023-06-10T01:26:23;23.90;37.80
67974;DHT22;54756;51.140;6.952;2023-06-10T01:28:33;23.90;37.80
67974;DHT22;54756;51.140;6.952;2023-06-10T01:31:00;23.90;37.90
67974;DHT22;54756;51.140;6.952;2023-06-10T01:33:09;23.90;37.90
67974;DHT22;54756;51.140;6.952;2023-06-10T01:35:11;23.90;37.80
67974;DHT22;54756;51.140;6.952;2023-06-10T01:37:15;23.90;37.80
67974;DHT22;54756;51.140;6.952;2023-06-10T01:39:21;23.90;37.70
67974;DHT22;54756;51.140;6.952;2023-06-10T01:41:23;23.90;37.60
67974;DHT22;54756;51.140;6.952;2023-06-10T01:43:23;23.80;37.50
67974;DHT22;54756;51.140;6.952;2023-06-10T01:45:24;23.90;37.60
67974;DHT22;54756;51.140;6.952;2023-06-10T01:47:24;23.80;37.50
67974;DHT22;54756;51.140;6.952;2023-06-10T01:49:25;23.90;37.60
67974;DHT22;54756;51.140;6.952;2023-06-10T01:51:26;23.80;37.50
67974;DHT22;54756;51.140;6.952;2023-06-10T01:53:27;23.80;37.50
67974;DHT22;54756;51.140;6.952;2023-06-10T01:55:27;23.80;37.40
67974;DHT22;54756;51.140;6.952;2023-06-10T01:57:28;23.80;37.50
67974;DHT22;54756;51.140;6.952;2023-06-10T01:59:28;23.80;37.50
67974;DHT22;54756;51.140;6.952;2023-06-10T02:01:29;23.80;37.40
67974;DHT22;54756;51.140;6.952;2023-06-10T02:03:30;23.80;37.50
67974;DHT22;54756;51.140;6.952;2023-06-10T02:05:30;23.80;37.40
67974;DHT22;54756;51.140;6.952;2023-06-10T02:07:31;23.80;37.50
67974;DHT22;54756;51.140;6.952;2023-06-10T02:09:31;23.80;37.40
67974;DHT22;54756;51.140;6.952;2023-06-10T02:11:35;23.80;37.40
67974;DHT22;54756;51.140;6.952;2023-06-10T02:13:35;23.80;37.40
67974;DHT22;54756;51.140;6.952;2023-06-10T02:15:36;23.80;37.30
67974;DHT22;54756;51.140;6.952;2023-06-10T02:17:36;23.80;37.30
67974;DHT22;54756;51.140;6.952;2023-06-10T02:19:38;23.70;37.20
67974;DHT22;54756;51.140;6.952;2023-06-10T02:21:42;23.70;37.00
67974;DHT22;54756;51.140;6.952;2023-06-10T02:23:43;23.70;37.20
67974;DHT22;54756;51.140;6.952;2023-06-10T02:25:44;23.70;37.10
67974;DHT22;54756;51.140;6.952;2023-06-10T02:27:44;23.70;37.00
67974;DHT22;54756;51.140;6.952;2023-06-10T02:29:45;23.70;37.10
67974;DHT22;54756;51.140;6.952;2023-06-10T02:31:45;23.70;37.00
67974;DHT22;54756;51.140;6.952;2023-06-10T02:33:46;23.70;36.90
67974;DHT22;54756;51.140;6.952;2023-06-10T02:35:46;23.70;36.90
67974;DHT22;54756;51.140;6.952;2023-06-10T02:37:47;23.70;36.80
67974;DHT22;54756;51.140;6.952;2023-06-10T02:39:47;23.60;36.60
67974;DHT22;54756;51.140;6.952;2023-06-10T02:41:48;23.60;36.50
67974;DHT22;54756;51.140;6.952;2023-06-10T02:43:49;23.60;36.40
67974;DHT22;54756;51.140;6.952;2023-06-10T02:45:49;23.60;36.10
67974;DHT22;54756;51.140;6.952;2023-06-10T02:47:50;23.60;36.10
67974;DHT22;54756;51.140;6.952;2023-06-10T02:49:50;23.60;35.90
67974;DHT22;54756;51.140;6.952;2023-06-10T02:51:51;23.60;35.90
67974;DHT22;54756;51.140;6.952;2023-06-10T02:53:53;23.60;35.80
67974;DHT22;54756;51.140;6.952;2023-06-10T02:55:54;23.60;36.50
67974;DHT22;54756;51.140;6.952;2023-06-10T02:57:54;23.60;36.00
67974;DHT22;54756;51.140;6.952;2023-06-10T02:59:55;23.60;36.00
67974;DHT22;54756;51.140;6.952;2023-06-10T03:01:56;23.60;35.80
67974;DHT22;54756;51.140;6.952;2023-06-10T03:03:56;23.60;35.80
67974;DHT22;54756;51.140;6.952;2023-06-10T03:05:57;23.60;35.90
67974;DHT22;54756;51.140;6.952;2023-06-10T03:07:59;23.60;35.90
67974;DHT22;54756;51.140;6.952;2023-06-10T03:09:59;23.60;35.90
67974;DHT22;54756;51.140;6.952;2023-06-10T03:12:00;23.60;35.90
67974;DHT22;54756;51.140;6.952;2023-06-10T03:14:01;23.50;35.30
67974;DHT22;54756;51.140;6.952;2023-06-10T03:16:02;23.50;35.20
67974;DHT22;54756;51.140;6.952;2023-06-10T03:18:03;23.50;35.00
67974;DHT22;54756;51.140;6.952;2023-06-10T03:20:04;23.50;34.80
67974;DHT22;54756;51.140;6.952;2023-06-10T03:22:13;23.50;34.80
67974;DHT22;54756;51.140;6.952;2023-06-10T03:24:14;23.50;34.80
67974;DHT22;54756;51.140;6.952;2023-06-10T03:26:14;23.50;34.50
67974;DHT22;54756;51.140;6.952;2023-06-10T03:28:16;23.50;34.40
67974;DHT22;54756;51.140;6.952;2023-06-10T03:30:16;23.50;34.00
67974;DHT22;54756;51.140;6.952;2023-06-10T03:32:17;23.50;34.10
67974;DHT22;54756;51.140;6.952;2023-06-10T03:34:17;23.40;34.00
67974;DHT22;54756;51.140;6.952;2023-06-10T03:36:18;23.40;33.70
67974;DHT22;54756;51.140;6.952;2023-06-10T03:38:19;23.40;33.40
67974;DHT22;54756;51.140;6.952;2023-06-10T03:40:19;23.50;33.50
67974;DHT22;54756;51.140;6.952;2023-06-10T03:42:20;23.40;33.30
67974;DHT22;54756;51.140;6.952;2023-06-10T03:44:20;23.40;33.20
67974;DHT22;54756;51.140;6.952;2023-06-10T03:46:21;23.40;33.00
67974;DHT22;54756;51.140;6.952;2023-06-10T03:48:21;23.40;32.80
67974;DHT22;54756;51.140;6.952;2023-06-10T03:50:22;23.40;32.70
67974;DHT22;54756;51.140;6.952;2023-06-10T03:52:23;23.40;32.50
67974;DHT22;54756;51.140;6.952;2023-06-10T03:54:24;23.40;32.50
67974;DHT22;54756;51.140;6.952;2023-06-10T03:56:24;23.40;32.30
67974;DHT22;54756;51.140;6.952;2023-06-10T03:58:26;23.40;32.40
67974;DHT22;54756;51.140;6.952;2023-06-10T04:00:26;23.40;32.30
67974;DHT22;54756;51.140;6.952;2023-06-10T04:02:27;23.40;32.30
67974;DHT22;54756;51.140;6.952;2023-06-10T04:04:27;23.40;32.20
67974;DHT22;54756;51.140;6.952;2023-06-10T04:06:28;23.30;32.10
67974;DHT22;54756;51.140;6.952;2023-06-10T04:08:29;23.30;32.10
67974;DHT22;54756;51.140;6.952;2023-06-10T04:10:30;23.30;32.00
67974;DHT22;54756;51.140;6.952;2023-06-10T04:12:30;23.30;31.90
67974;DHT22;54756;51.140;6.952;2023-06-10T04:14:31;23.30;31.90
67974;DHT22;54756;51.140;6.952;2023-06-10T04:16:31;23.30;31.90
67974;DHT22;54756;51.140;6.952;2023-06-10T04:18:32;23.30;31.80
67974;DHT22;54756;51.140;6.952;2023-06-10T04:20:32;23.30;31.90
67974;DHT22;54756;51.140;6.952;2023-06-10T04:22:33;23.30;31.90
67974;DHT22;54756;51.140;6.952;2023-06-10T04:24:33;23.30;31.80
67974;DHT22;54756;51.140;6.952;2023-06-10T04:26:35;23.30;31.80
67974;DHT22;54756;51.140;6.952;2023-06-10T04:28:36;23.30;31.80
67974;DHT22;54756;51.140;6.952;2023-06-10T04:30:36;23.30;31.70
67974;DHT22;54756;51.140;6.952;2023-06-10T04:32:37;23.20;31.70
67974;DHT22;54756;51.140;6.952;2023-06-10T04:34:37;23.30;31.80
67974;DHT22;54756;51.140;6.952;2023-06-10T04:36:41;23.20;31.60
67974;DHT22;54756;51.140;6.952;2023-06-10T04:38:41;23.20;32.00
67974;DHT22;54756;51.140;6.952;2023-06-10T04:40:42;23.20;31.70
67974;DHT22;54756;51.140;6.952;2023-06-10T04:42:43;23.20;31.90
67974;DHT22;54756;51.140;6.952;2023-06-10T04:44:43;23.20;31.70
67974;DHT22;54756;51.140;6.952;2023-06-10T04:46:44;23.20;31.70
67974;DHT22;54756;51.140;6.952;2023-06-10T04:48:45;23.20;31.70
67974;DHT22;54756;51.140;6.952;2023-06-10T04:50:47;23.20;31.70
67974;DHT22;54756;51.140;6.952;2023-06-10T04:52:47;23.20;31.80
67974;DHT22;54756;51.140;6.952;2023-06-10T04:54:48;23.20;31.70
67974;DHT22;54756;51.140;6.952;2023-06-10T04:56:49;23.20;31.80
67974;DHT22;54756;51.140;6.952;2023-06-10T04:58:50;23.10;31.70
67974;DHT22;54756;51.140;6.952;2023-06-10T05:00:50;23.10;31.70
67974;DHT22;54756;51.140;6.952;2023-06-10T05:02:51;23.10;31.70
67974;DHT22;54756;51.140;6.952;2023-06-10T05:04:52;23.10;31.70
67974;DHT22;54756;51.140;6.952;2023-06-10T05:06:53;23.10;31.90
67974;DHT22;54756;51.140;6.952;2023-06-10T05:08:54;23.10;31.80
67974;DHT22;54756;51.140;6.952;2023-06-10T05:10:55;23.10;32.10
67974;DHT22;54756;51.140;6.952;2023-06-10T05:12:55;23.10;32.10
67974;DHT22;54756;51.140;6.952;2023-06-10T05:14:56;23.10;32.10
67974;DHT22;54756;51.140;6.952;2023-06-10T05:16:57;23.10;32.10
67974;DHT22;54756;51.140;6.952;2023-06-10T05:18:57;23.10;32.30
67974;DHT22;54756;51.140;6.952;2023-06-10T05:20:58;23.10;32.30
67974;DHT22;54756;51.140;6.952;2023-06-10T05:22:59;23.10;32.30
67974;DHT22;54756;51.140;6.952;2023-06-10T05:24:59;23.10;32.40
67974;DHT22;54756;51.140;6.952;2023-06-10T05:27:00;23.10;32.50
67974;DHT22;54756;51.140;6.952;2023-06-10T05:29:00;23.10;32.50
67974;DHT22;54756;51.140;6.952;2023-06-10T05:31:01;23.10;32.50
67974;DHT22;54756;51.140;6.952;2023-06-10T05:33:03;23.10;32.40
67974;DHT22;54756;51.140;6.952;2023-06-10T05:35:04;23.10;32.40
67974;DHT22;54756;51.140;6.952;2023-06-10T05:37:05;23.10;32.50
67974;DHT22;54756;51.140;6.952;2023-06-10T05:39:05;23.00;32.60
67974;DHT22;54756;51.140;6.952;2023-06-10T05:41:06;23.10;32.60
67974;DHT22;54756;51.140;6.952;2023-06-10T05:43:07;23.00;32.50
67974;DHT22;54756;51.140;6.952;2023-06-10T05:45:08;23.10;32.60
67974;DHT22;54756;51.140;6.952;2023-06-10T05:47:08;23.10;32.70
67974;DHT22;54756;51.140;6.952;2023-06-10T05:49:09;23.00;32.60
67974;DHT22;54756;51.140;6.952;2023-06-10T05:51:09;23.10;32.60
67974;DHT22;54756;51.140;6.952;2023-06-10T05:53:10;23.00;32.70
67974;DHT22;54756;51.140;6.952;2023-06-10T05:55:15;23.00;32.80
67974;DHT22;54756;51.140;6.952;2023-06-10T05:57:15;23.00;33.00
67974;DHT22;54756;51.140;6.952;2023-06-10T05:59:16;23.00;32.90
67974;DHT22;54756;51.140;6.952;2023-06-10T06:01:17;23.00;32.80
67974;DHT22;54756;51.140;6.952;2023-06-10T06:03:18;23.00;32.80
67974;DHT22;54756;51.140;6.952;2023-06-10T06:05:18;23.00;32.80
67974;DHT22;54756;51.140;6.952;2023-06-10T06:07:19;23.00;32.90
67974;DHT22;54756;51.140;6.952;2023-06-10T06:09:21;23.00;33.20
67974;DHT22;54756;51.140;6.952;2023-06-10T06:11:21;23.00;33.40
67974;DHT22;54756;51.140;6.952;2023-06-10T06:13:22;23.00;33.50
67974;DHT22;54756;51.140;6.952;2023-06-10T06:15:23;23.00;33.50
67974;DHT22;54756;51.140;6.952;2023-06-10T06:17:23;23.00;33.40
67974;DHT22;54756;51.140;6.952;2023-06-10T06:19:24;23.00;33.50
67974;DHT22;54756;51.140;6.952;2023-06-10T06:21:24;23.00;33.50
67974;DHT22;54756;51.140;6.952;2023-06-10T06:23:25;23.00;33.50
67974;DHT22;54756;51.140;6.952;2023-06-10T06:25:25;23.00;33.50
67974;DHT22;54756;51.140;6.952;2023-06-10T06:27:26;23.00;33.60
67974;DHT22;54756;51.140;6.952;2023-06-10T06:29:26;23.00;33.60
67974;DHT22;54756;51.140;6.952;2023-06-10T06:31:27;22.90;33.50
67974;DHT22;54756;51.140;6.952;2023-06-10T06:33:27;23.00;33.60
67974;DHT22;54756;51.140;6.952;2023-06-10T06:35:31;22.90;33.60
67974;DHT22;54756;51.140;6.952;2023-06-10T06:37:32;23.00;33.60
67974;DHT22;54756;51.140;6.952;2023-06-10T06:39:32;22.90;33.50
67974;DHT22;54756;51.140;6.952;2023-06-10T06:41:33;22.90;33.50
67974;DHT22;54756;51.140;6.952;2023-06-10T06:43:33;22.90;33.50
67974;DHT22;54756;51.140;6.952;2023-06-10T06:45:34;22.90;33.50
67974;DHT22;54756;51.140;6.952;2023-06-10T06:47:35;22.90;33.40
67974;DHT22;54756;51.140;6.952;2023-06-10T06:49:35;22.90;33.40
67974;DHT22;54756;51.140;6.952;2023-06-10T06:51:36;22.90;33.40
67974;DHT22;54756;51.140;6.952;2023-06-10T06:53:37;22.90;33.40
67974;DHT22;54756;51.140;6.952;2023-06-10T06:55:44;22.90;33.40
67974;DHT22;54756;51.140;6.952;2023-06-10T06:57:45;22.90;33.30
67974;DHT22;54756;51.140;6.952;2023-06-10T06:59:45;22.90;33.30
67974;DHT22;54756;51.140;6.952;2023-06-10T07:01:46;22.90;33.30
67974;DHT22;54756;51.140;6.952;2023-06-10T07:03:47;22.90;33.30
67974;DHT22;54756;51.140;6.952;2023-06-10T07:05:47;22.90;33.30
67974;DHT22;54756;51.140;6.952;2023-06-10T07:07:49;22.90;33.30
67974;DHT22;54756;51.140;6.952;2023-06-10T07:09:55;22.90;33.30
67974;DHT22;54756;51.140;6.952;2023-06-10T07:11:55;22.90;33.30
67974;DHT22;54756;51.140;6.952;2023-06-10T07:13:56;22.90;33.20
67974;DHT22;54756;51.140;6.952;2023-06-10T07:15:56;22.90;33.30
67974;DHT22;54756;51.140;6.952;2023-06-10T07:17:57;22.90;33.20
67974;DHT22;54756;51.140;6.952;2023-06-10T07:19:57;22.90;33.20
67974;DHT22;54756;51.140;6.952;2023-06-10T07:21:59;22.90;33.30
67974;DHT22;54756;51.140;6.952;2023-06-10T07:24:00;22.90;33.40
67974;DHT22;54756;51.140;6.952;2023-06-10T07:26:00;22.90;33.40
67974;DHT22;54756;51.140;6.952;2023-06-10T07:28:01;22.90;33.40
67974;DHT22;54756;51.140;6.952;2023-06-10T07:30:02;22.90;33.50
67974;DHT22;54756;51.140;6.952;2023-06-10T07:32:03;22.90;33.50
67974;DHT22;54756;51.140;6.952;2023-06-10T07:34:04;22.90;33.50
67974;DHT22;54756;51.140;6.952;2023-06-10T07:36:05;22.90;33.50
67974;DHT22;54756;51.140;6.952;2023-06-10T07:38:06;22.90;33.50
67974;DHT22;54756;51.140;6.952;2023-06-10T07:40:07;22.90;33.60
67974;DHT22;54756;51.140;6.952;2023-06-10T07:42:08;22.90;33.60
67974;DHT22;54756;51.140;6.952;2023-06-10T07:44:08;23.00;33.70
67974;DHT22;54756;51.140;6.952;2023-06-10T07:46:09;22.90;33.60
67974;DHT22;54756;51.140;6.952;2023-06-10T07:48:09;22.90;33.70
67974;DHT22;54756;51.140;6.952;2023-06-10T07:50:10;22.90;33.70
67974;DHT22;54756;51.140;6.952;2023-06-10T07:52:11;22.90;33.80
67974;DHT22;54756;51.140;6.952;2023-06-10T07:54:11;22.90;33.90
67974;DHT22;54756;51.140;6.952;2023-06-10T07:56:12;22.90;33.90
67974;DHT22;54756;51.140;6.952;2023-06-10T07:58:13;23.00;34.70
67974;DHT22;54756;51.140;6.952;2023-06-10T08:00:14;22.90;34.00
67974;DHT22;54756;51.140;6.952;2023-06-10T08:02:15;22.90;34.10
67974;DHT22;54756;51.140;6.952;2023-06-10T08:04:15;22.90;34.10
67974;DHT22;54756;51.140;6.952;2023-06-10T08:06:16;22.90;34.20
67974;DHT22;54756;51.140;6.952;2023-06-10T08:08:17;23.00;34.40
67974;DHT22;54756;51.140;6.952;2023-06-10T08:10:18;23.00;34.50
67974;DHT22;54756;51.140;6.952;2023-06-10T08:12:18;22.90;34.50
67974;DHT22;54756;51.140;6.952;2023-06-10T08:14:19;23.00;34.60
67974;DHT22;54756;51.140;6.952;2023-06-10T08:16:20;23.00;34.60
67974;DHT22;54756;51.140;6.952;2023-06-10T08:18:21;23.00;34.60
67974;DHT22;54756;51.140;6.952;2023-06-10T08:20:21;23.00;34.60
67974;DHT22;54756;51.140;6.952;2023-06-10T08:22:22;23.00;34.80
67974;DHT22;54756;51.140;6.952;2023-06-10T08:24:22;23.00;34.90
67974;DHT22;54756;51.140;6.952;2023-06-10T08:26:24;23.00;35.10
67974;DHT22;54756;51.140;6.952;2023-06-10T08:28:24;23.00;35.20
67974;DHT22;54756;51.140;6.952;2023-06-10T08:30:25;23.00;35.30
67974;DHT22;54756;51.140;6.952;2023-06-10T08:32:26;23.00;35.40
67974;DHT22;54756;51.140;6.952;2023-06-10T08:34:26;23.00;35.50
67974;DHT22;54756;51.140;6.952;2023-06-10T08:36:27;23.00;35.60
67974;DHT22;54756;51.140;6.952;2023-06-10T08:38:27;23.00;35.70
67974;DHT22;54756;51.140;6.952;2023-06-10T08:40:28;23.00;35.90
67974;DHT22;54756;51.140;6.952;2023-06-10T08:42:34;23.00;35.90
67974;DHT22;54756;51.140;6.952;2023-06-10T08:44:37;23.00;35.30
67974;DHT22;54756;51.140;6.952;2023-06-10T08:46:42;23.10;34.70
67974;DHT22;54756;51.140;6.952;2023-06-10T08:48:47;23.00;34.00
67974;DHT22;54756;51.140;6.952;2023-06-10T08:50:50;23.00;33.50
67974;DHT22;54756;51.140;6.952;2023-06-10T08:52:54;23.10;33.40
67974;DHT22;54756;51.140;6.952;2023-06-10T08:55:02;23.10;32.90
67974;DHT22;54756;51.140;6.952;2023-06-10T08:57:05;23.10;32.70
67974;DHT22;54756;51.140;6.952;2023-06-10T08:59:09;23.10;32.30
67974;DHT22;54756;51.140;6.952;2023-06-10T09:01:10;23.10;32.00
67974;DHT22;54756;51.140;6.952;2023-06-10T09:03:11;23.10;31.70
67974;DHT22;54756;51.140;6.952;2023-06-10T09:05:13;23.20;31.40
67974;DHT22;54756;51.140;6.952;2023-06-10T09:07:15;23.20;30.90
67974;DHT22;54756;51.140;6.952;2023-06-10T09:09:16;23.20;30.70
67974;DHT22;54756;51.140;6.952;2023-06-10T09:11:18;23.30;30.40
67974;DHT22;54756;51.140;6.952;2023-06-10T09:13:18;23.20;30.20
67974;DHT22;54756;51.140;6.952;2023-06-10T09:15:19;23.30;30.00
67974;DHT22;54756;51.140;6.952;2023-06-10T09:17:20;23.30;30.20
67974;DHT22;54756;51.140;6.952;2023-06-10T09:19:21;23.30;29.50
67974;DHT22;54756;51.140;6.952;2023-06-10T09:21:24;23.30;29.30
67974;DHT22;54756;51.140;6.952;2023-06-10T09:23:25;23.30;29.10
67974;DHT22;54756;51.140;6.952;2023-06-10T09:25:44;23.40;29.10
67974;DHT22;54756;51.140;6.952;2023-06-10T09:27:45;23.40;28.90
67974;DHT22;54756;51.140;6.952;2023-06-10T09:29:55;23.40;28.80
67974;DHT22;54756;51.140;6.952;2023-06-10T09:31:56;23.40;28.70
67974;DHT22;54756;51.140;6.952;2023-06-10T09:34:08;23.40;28.60
67974;DHT22;54756;51.140;6.952;2023-06-10T09:36:09;23.40;28.60
67974;DHT22;54756;51.140;6.952;2023-06-10T09:38:09;23.40;28.70
67974;DHT22;54756;51.140;6.952;2023-06-10T09:40:11;23.40;28.90
67974;DHT22;54756;51.140;6.952;2023-06-10T09:42:19;23.50;29.00
67974;DHT22;54756;51.140;6.952;2023-06-10T09:44:20;23.50;29.10
67974;DHT22;54756;51.140;6.952;2023-06-10T09:46:21;23.50;29.80
67974;DHT22;54756;51.140;6.952;2023-06-10T09:48:22;23.50;29.30
67974;DHT22;54756;51.140;6.952;2023-06-10T09:50:23;23.50;29.40
67974;DHT22;54756;51.140;6.952;2023-06-10T09:52:25;23.50;29.60
67974;DHT22;54756;51.140;6.952;2023-06-10T09:54:31;23.60;29.90
67974;DHT22;54756;51.140;6.952;2023-06-10T09:56:33;23.60;30.00
67974;DHT22;54756;51.140;6.952;2023-06-10T09:58:36;23.60;30.30
67974;DHT22;54756;51.140;6.952;2023-06-10T10:00:37;23.60;30.40
67974;DHT22;54756;51.140;6.952;2023-06-10T10:02:49;23.60;30.60
67974;DHT22;54756;51.140;6.952;2023-06-10T10:04:50;23.60;30.60
67974;DHT22;54756;51.140;6.952;2023-06-10T10:06:51;23.60;30.90
67974;DHT22;54756;51.140;6.952;2023-06-10T10:08:51;23.60;31.00
67974;DHT22;54756;51.140;6.952;2023-06-10T10:10:52;23.60;31.30
67974;DHT22;54756;51.140;6.952;2023-06-10T10:12:56;23.60;31.50
67974;DHT22;54756;51.140;6.952;2023-06-10T10:14:56;23.70;31.80
67974;DHT22;54756;51.140;6.952;2023-06-10T10:16:57;23.70;32.00
67974;DHT22;54756;51.140;6.952;2023-06-10T10:19:07;23.70;32.20
67974;DHT22;54756;51.140;6.952;2023-06-10T10:21:12;23.70;32.50
67974;DHT22;54756;51.140;6.952;2023-06-10T10:25:40;23.80;33.00
67974;DHT22;54756;51.140;6.952;2023-06-10T10:27:48;23.80;33.40
67974;DHT22;54756;51.140;6.952;2023-06-10T10:29:52;23.80;33.60
67974;DHT22;54756;51.140;6.952;2023-06-10T10:31:54;23.80;33.80
67974;DHT22;54756;51.140;6.952;2023-06-10T10:34:01;23.80;34.00
67974;DHT22;54756;51.140;6.952;2023-06-10T10:36:03;23.80;34.30
67974;DHT22;54756;51.140;6.952;2023-06-10T10:38:05;23.80;34.70
67974;DHT22;54756;51.140;6.952;2023-06-10T10:40:07;23.80;35.00
67974;DHT22;54756;51.140;6.952;2023-06-10T10:42:09;23.80;35.30
67974;DHT22;54756;51.140;6.952;2023-06-10T10:44:11;23.80;35.30
67974;DHT22;54756;51.140;6.952;2023-06-10T10:46:14;23.90;35.60
67974;DHT22;54756;51.140;6.952;2023-06-10T10:48:15;23.90;36.00
67974;DHT22;54756;51.140;6.952;2023-06-10T10:50:17;23.90;36.20
67974;DHT22;54756;51.140;6.952;2023-06-10T10:52:18;23.90;36.50
67974;DHT22;54756;51.140;6.952;2023-06-10T10:54:36;23.90;36.70
67974;DHT22;54756;51.140;6.952;2023-06-10T10:59:09;23.90;37.10
67974;DHT22;54756;51.140;6.952;2023-06-10T11:01:11;23.90;37.50
67974;DHT22;54756;51.140;6.952;2023-06-10T11:03:14;23.90;37.70
67974;DHT22;54756;51.140;6.952;2023-06-10T11:05:16;24.00;38.10
67974;DHT22;54756;51.140;6.952;2023-06-10T11:07:20;24.00;38.40
67974;DHT22;54756;51.140;6.952;2023-06-10T11:09:28;24.00;38.50
67974;DHT22;54756;51.140;6.952;2023-06-10T11:11:29;24.00;38.70
67974;DHT22;54756;51.140;6.952;2023-06-10T11:13:31;24.00;38.90
67974;DHT22;54756;51.140;6.952;2023-06-10T11:15:31;24.00;39.00
67974;DHT22;54756;51.140;6.952;2023-06-10T11:17:32;24.00;39.30
67974;DHT22;54756;51.140;6.952;2023-06-10T11:19:37;24.00;39.60
67974;DHT22;54756;51.140;6.952;2023-06-10T11:22:00;24.00;39.90
67974;DHT22;54756;51.140;6.952;2023-06-10T11:24:11;24.00;39.90
67974;DHT22;54756;51.140;6.952;2023-06-10T11:28:20;24.00;40.40
67974;DHT22;54756;51.140;6.952;2023-06-10T11:30:20;24.10;40.70
67974;DHT22;54756;51.140;6.952;2023-06-10T11:32:33;24.10;40.80
67974;DHT22;54756;51.140;6.952;2023-06-10T11:34:34;24.10;41.00
67974;DHT22;54756;51.140;6.952;2023-06-10T11:36:38;24.10;41.20
67974;DHT22;54756;51.140;6.952;2023-06-10T11:38:41;24.10;41.50
67974;DHT22;54756;51.140;6.952;2023-06-10T11:40:48;24.10;41.60
67974;DHT22;54756;51.140;6.952;2023-06-10T11:42:49;24.10;41.80
67974;DHT22;54756;51.140;6.952;2023-06-10T11:44:53;24.10;42.00
67974;DHT22;54756;51.140;6.952;2023-06-10T11:46:56;24.10;42.10
67974;DHT22;54756;51.140;6.952;2023-06-10T11:48:59;24.10;42.20
67974;DHT22;54756;51.140;6.952;2023-06-10T11:50:59;24.20;42.40
67974;DHT22;54756;51.140;6.952;2023-06-10T11:53:00;24.20;42.50
67974;DHT22;54756;51.140;6.952;2023-06-10T11:55:01;24.20;42.60
67974;DHT22;54756;51.140;6.952;2023-06-10T11:57:01;24.20;42.70
67974;DHT22;54756;51.140;6.952;2023-06-10T11:59:05;24.20;42.70
67974;DHT22;54756;51.140;6.952;2023-06-10T12:01:07;24.20;42.80
67974;DHT22;54756;51.140;6.952;2023-06-10T12:03:08;24.20;43.50
67974;DHT22;54756;51.140;6.952;2023-06-10T12:05:13;24.20;42.80
67974;DHT22;54756;51.140;6.952;2023-06-10T12:07:18;24.20;42.80
67974;DHT22;54756;51.140;6.952;2023-06-10T12:11:21;24.20;42.80
67974;DHT22;54756;51.140;6.952;2023-06-10T12:13:27;24.20;42.80
67974;DHT22;54756;51.140;6.952;2023-06-10T12:15:27;24.20;42.90
67974;DHT22;54756;51.140;6.952;2023-06-10T12:19:40;24.30;43.00
67974;DHT22;54756;51.140;6.952;2023-06-10T12:21:40;24.30;43.00
67974;DHT22;54756;51.140;6.952;2023-06-10T12:24:00;24.30;43.00
67974;DHT22;54756;51.140;6.952;2023-06-10T12:26:00;24.30;42.90
67974;DHT22;54756;51.140;6.952;2023-06-10T12:28:02;24.30;43.00
67974;DHT22;54756;51.140;6.952;2023-06-10T12:30:04;24.30;43.00
67974;DHT22;54756;51.140;6.952;2023-06-10T12:32:06;24.30;43.00
67974;DHT22;54756;51.140;6.952;2023-06-10T12:34:08;24.40;43.10
67974;DHT22;54756;51.140;6.952;2023-06-10T12:36:16;24.30;43.00
67974;DHT22;54756;51.140;6.952;2023-06-10T12:38:26;24.40;43.10
67974;DHT22;54756;51.140;6.952;2023-06-10T12:40:33;24.40;43.00
67974;DHT22;54756;51.140;6.952;2023-06-10T12:42:34;24.40;43.00
67974;DHT22;54756;51.140;6.952;2023-06-10T12:44:39;24.40;42.90
67974;DHT22;54756;51.140;6.952;2023-06-10T12:46:41;24.40;43.00
67974;DHT22;54756;51.140;6.952;2023-06-10T12:48:50;24.40;42.90
67974;DHT22;54756;51.140;6.952;2023-06-10T12:50:56;24.40;43.00
67974;DHT22;54756;51.140;6.952;2023-06-10T12:52:57;24.40;43.00
67974;DHT22;54756;51.140;6.952;2023-06-10T12:54:58;24.40;43.10
67974;DHT22;54756;51.140;6.952;2023-06-10T12:56:59;24.40;43.10
67974;DHT22;54756;51.140;6.952;2023-06-10T12:58:59;24.40;43.10
67974;DHT22;54756;51.140;6.952;2023-06-10T13:01:00;24.40;43.20
67974;DHT22;54756;51.140;6.952;2023-06-10T13:03:01;24.40;43.20